sensor_id;sensor_type;location;lat;lon;timestamp;P1;durP1;ratioP1;P2;durP2;ratioP2
483;SDS011;228;48.922;12.198;2023-06-26T04:01:54;9.87;;;7.80;;
483;SDS011;228;48.922;12.198;2023-06-26T04:04:21;12.20;;;8.07;;
483;SDS011;228;48.922;12.198;2023-06-26T04:06:47;9.77;;;7.90;;
483;SDS011;228;48.922;12.198;2023-06-26T04:09:13;9.20;;;8.20;;
483;SDS011;228;48.922;12.198;2023-06-26T04:11:39;9.00;;;8.10;;
483;SDS011;228;48.922;12.198;2023-06-26T04:14:05;11.13;;;8.30;;
483;SDS011;228;48.922;12.198;2023-06-26T04:16:31;11.83;;;8.20;;
483;SDS011;228;48.922;12.198;2023-06-26T04:18:58;8.83;;;7.93;;
483;SDS011;228;48.922;12.198;2023-06-26T04:21:23;11.97;;;9.00;;
483;SDS011;228;48.922;12.198;2023-06-26T04:23:50;11.53;;;8.67;;
483;SDS011;228;48.922;12.198;2023-06-26T04:26:16;9.67;;;8.53;;
483;SDS011;228;48.922;12.198;2023-06-26T04:28:42;10.63;;;9.07;;
483;SDS011;228;48.922;12.198;2023-06-26T04:31:09;9.93;;;8.23;;
483;SDS011;228;48.922;12.198;2023-06-26T04:33:35;10.10;;;8.50;;
483;SDS011;228;48.922;12.198;2023-06-26T04:36:03;10.10;;;9.10;;
483;SDS011;228;48.922;12.198;2023-06-26T04:38:30;10.25;;;9.02;;
483;SDS011;228;48.922;12.198;2023-06-26T04:41:00;11.38;;;9.10;;
483;SDS011;228;48.922;12.198;2023-06-26T04:43:27;11.93;;;9.63;;
483;SDS011;228;48.922;12.198;2023-06-26T04:45:53;10.32;;;9.18;;
483;SDS011;228;48.922;12.198;2023-06-26T04:48:19;11.90;;;9.88;;
483;SDS011;228;48.922;12.198;2023-06-26T04:50:45;11.07;;;8.98;;
483;SDS011;228;48.922;12.198;2023-06-26T04:53:19;11.35;;;9.25;;
483;SDS011;228;48.922;12.198;2023-06-26T04:55:46;12.93;;;10.35;;
483;SDS011;228;48.922;12.198;2023-06-26T04:58:12;13.48;;;9.35;;
483;SDS011;228;48.922;12.198;2023-06-26T05:00:38;14.18;;;10.10;;
483;SDS011;228;48.922;12.198;2023-06-26T05:03:08;10.80;;;9.57;;
483;SDS011;228;48.922;12.198;2023-06-26T05:05:38;12.65;;;9.77;;
483;SDS011;228;48.922;12.198;2023-06-26T05:08:18;10.75;;;9.25;;
483;SDS011;228;48.922;12.198;2023-06-26T05:10:46;10.07;;;8.88;;
483;SDS011;228;48.922;12.198;2023-06-26T05:13:13;9.57;;;8.57;;
483;SDS011;228;48.922;12.198;2023-06-26T05:15:43;11.68;;;9.85;;
483;SDS011;228;48.922;12.198;2023-06-26T05:18:09;10.18;;;9.18;;
483;SDS011;228;48.922;12.198;2023-06-26T05:20:36;10.63;;;8.93;;
483;SDS011;228;48.922;12.198;2023-06-26T05:23:02;9.38;;;8.40;;
483;SDS011;228;48.922;12.198;2023-06-26T05:25:29;11.25;;;9.10;;
483;SDS011;228;48.922;12.198;2023-06-26T05:27:58;9.60;;;8.52;;
483;SDS011;228;48.922;12.198;2023-06-26T05:30:25;11.55;;;9.75;;
483;SDS011;228;48.922;12.198;2023-06-26T05:32:53;10.82;;;8.88;;
483;SDS011;228;48.922;12.198;2023-06-26T05:35:20;10.52;;;9.38;;
483;SDS011;228;48.922;12.198;2023-06-26T05:37:49;9.23;;;8.27;;
483;SDS011;228;48.922;12.198;2023-06-26T05:40:17;11.15;;;9.48;;
483;SDS011;228;48.922;12.198;2023-06-26T05:42:44;13.13;;;8.88;;
483;SDS011;228;48.922;12.198;2023-06-26T05:45:11;10.90;;;8.50;;
483;SDS011;228;48.922;12.198;2023-06-26T05:47:37;9.80;;;8.80;;
483;SDS011;228;48.922;12.198;2023-06-26T05:50:03;11.13;;;8.43;;
483;SDS011;228;48.922;12.198;2023-06-26T05:52:30;11.88;;;9.45;;
483;SDS011;228;48.922;12.198;2023-06-26T05:55:00;10.85;;;8.93;;
483;SDS011;228;48.922;12.198;2023-06-26T05:57:30;11.80;;;9.32;;
483;SDS011;228;48.922;12.198;2023-06-26T06:00:02;11.00;;;9.48;;
483;SDS011;228;48.922;12.198;2023-06-26T06:02:39;10.05;;;8.80;;
483;SDS011;228;48.922;12.198;2023-06-26T06:05:07;13.40;;;9.88;;
483;SDS011;228;48.922;12.198;2023-06-26T06:07:33;10.27;;;8.55;;
483;SDS011;228;48.922;12.198;2023-06-26T06:10:00;12.88;;;9.27;;
483;SDS011;228;48.922;12.198;2023-06-26T06:12:28;10.38;;;9.27;;
483;SDS011;228;48.922;12.198;2023-06-26T06:15:12;9.30;;;8.32;;
483;SDS011;228;48.922;12.198;2023-06-26T06:17:38;15.68;;;10.07;;
483;SDS011;228;48.922;12.198;2023-06-26T06:20:05;10.25;;;9.13;;
483;SDS011;228;48.922;12.198;2023-06-26T06:22:32;12.63;;;9.65;;
483;SDS011;228;48.922;12.198;2023-06-26T06:25:01;13.10;;;10.00;;
483;SDS011;228;48.922;12.198;2023-06-26T06:27:27;11.02;;;9.48;;
483;SDS011;228;48.922;12.198;2023-06-26T06:29:54;12.10;;;10.00;;
483;SDS011;228;48.922;12.198;2023-06-26T06:32:20;11.48;;;9.02;;
483;SDS011;228;48.922;12.198;2023-06-26T06:34:47;10.93;;;9.85;;
483;SDS011;228;48.922;12.198;2023-06-26T06:37:13;12.40;;;9.27;;
483;SDS011;228;48.922;12.198;2023-06-26T06:39:39;10.00;;;9.00;;
483;SDS011;228;48.922;12.198;2023-06-26T06:42:05;10.77;;;9.07;;
483;SDS011;228;48.922;12.198;2023-06-26T06:44:32;11.85;;;9.43;;
483;SDS011;228;48.922;12.198;2023-06-26T06:46:58;10.23;;;9.20;;
483;SDS011;228;48.922;12.198;2023-06-26T06:49:24;11.13;;;8.73;;
483;SDS011;228;48.922;12.198;2023-06-26T06:51:50;10.95;;;8.73;;
483;SDS011;228;48.922;12.198;2023-06-26T06:54:17;8.65;;;7.72;;
483;SDS011;228;48.922;12.198;2023-06-26T06:56:44;13.95;;;8.35;;
483;SDS011;228;48.922;12.198;2023-06-26T06:59:11;8.07;;;7.28;;
483;SDS011;228;48.922;12.198;2023-06-26T07:01:39;9.20;;;8.20;;
483;SDS011;228;48.922;12.198;2023-06-26T07:04:06;8.65;;;7.75;;
483;SDS011;228;48.922;12.198;2023-06-26T07:06:32;8.85;;;7.95;;
483;SDS011;228;48.922;12.198;2023-06-26T07:08:58;9.55;;;7.70;;
483;SDS011;228;48.922;12.198;2023-06-26T07:11:24;10.25;;;8.18;;
483;SDS011;228;48.922;12.198;2023-06-26T07:13:50;8.88;;;7.97;;
483;SDS011;228;48.922;12.198;2023-06-26T07:16:16;9.63;;;8.48;;
483;SDS011;228;48.922;12.198;2023-06-26T07:18:43;9.25;;;7.78;;
483;SDS011;228;48.922;12.198;2023-06-26T07:21:09;9.50;;;8.38;;
483;SDS011;228;48.922;12.198;2023-06-26T07:23:35;9.23;;;8.15;;
483;SDS011;228;48.922;12.198;2023-06-26T07:26:01;8.98;;;8.07;;
483;SDS011;228;48.922;12.198;2023-06-26T07:28:27;8.82;;;7.75;;
483;SDS011;228;48.922;12.198;2023-06-26T07:30:53;9.25;;;8.13;;
483;SDS011;228;48.922;12.198;2023-06-26T07:33:19;11.00;;;8.18;;
483;SDS011;228;48.922;12.198;2023-06-26T07:35:46;10.07;;;8.40;;
483;SDS011;228;48.922;12.198;2023-06-26T07:38:12;8.77;;;7.22;;
483;SDS011;228;48.922;12.198;2023-06-26T07:40:38;11.02;;;8.05;;
483;SDS011;228;48.922;12.198;2023-06-26T07:43:03;9.60;;;7.85;;
483;SDS011;228;48.922;12.198;2023-06-26T07:45:29;9.10;;;8.10;;
483;SDS011;228;48.922;12.198;2023-06-26T07:47:55;13.27;;;8.68;;
483;SDS011;228;48.922;12.198;2023-06-26T07:50:22;9.50;;;7.90;;
483;SDS011;228;48.922;12.198;2023-06-26T07:52:49;11.60;;;7.63;;
483;SDS011;228;48.922;12.198;2023-06-26T07:55:17;8.82;;;7.97;;
483;SDS011;228;48.922;12.198;2023-06-26T07:57:43;8.77;;;7.88;;
483;SDS011;228;48.922;12.198;2023-06-26T08:00:10;9.55;;;8.48;;
483;SDS011;228;48.922;12.198;2023-06-26T08:02:40;10.68;;;8.18;;
483;SDS011;228;48.922;12.198;2023-06-26T08:05:06;9.20;;;8.30;;
483;SDS011;228;48.922;12.198;2023-06-26T08:07:32;13.15;;;8.30;;
483;SDS011;228;48.922;12.198;2023-06-26T08:09:58;9.40;;;8.40;;
483;SDS011;228;48.922;12.198;2023-06-26T08:12:24;11.40;;;7.95;;
483;SDS011;228;48.922;12.198;2023-06-26T08:14:50;8.95;;;7.82;;
483;SDS011;228;48.922;12.198;2023-06-26T08:17:16;9.93;;;8.07;;
483;SDS011;228;48.922;12.198;2023-06-26T08:19:42;8.85;;;7.95;;
483;SDS011;228;48.922;12.198;2023-06-26T08:22:08;11.98;;;8.23;;
483;SDS011;228;48.922;12.198;2023-06-26T08:24:34;8.48;;;7.38;;
483;SDS011;228;48.922;12.198;2023-06-26T08:27:02;10.60;;;8.00;;
483;SDS011;228;48.922;12.198;2023-06-26T08:29:59;11.70;;;7.80;;
483;SDS011;228;48.922;12.198;2023-06-26T08:33:01;8.52;;;7.65;;
483;SDS011;228;48.922;12.198;2023-06-26T08:35:53;9.73;;;8.43;;
483;SDS011;228;48.922;12.198;2023-06-26T08:38:21;9.23;;;7.28;;
483;SDS011;228;48.922;12.198;2023-06-26T08:40:49;10.52;;;8.05;;
483;SDS011;228;48.922;12.198;2023-06-26T08:43:18;9.52;;;7.55;;
483;SDS011;228;48.922;12.198;2023-06-26T08:46:01;9.30;;;7.90;;
483;SDS011;228;48.922;12.198;2023-06-26T08:48:29;8.38;;;7.55;;
483;SDS011;228;48.922;12.198;2023-06-26T08:51:01;10.68;;;8.00;;
483;SDS011;228;48.922;12.198;2023-06-26T08:53:41;11.15;;;7.78;;
483;SDS011;228;48.922;12.198;2023-06-26T08:56:17;8.15;;;7.32;;
483;SDS011;228;48.922;12.198;2023-06-26T09:01:37;8.00;;;7.20;;
483;SDS011;228;48.922;12.198;2023-06-26T09:04:10;8.50;;;7.22;;
483;SDS011;228;48.922;12.198;2023-06-26T09:06:38;8.23;;;7.43;;
483;SDS011;228;48.922;12.198;2023-06-26T09:09:05;8.20;;;6.97;;
483;SDS011;228;48.922;12.198;2023-06-26T09:11:35;7.72;;;7.03;;
483;SDS011;228;48.922;12.198;2023-06-26T09:14:40;8.27;;;7.38;;
483;SDS011;228;48.922;12.198;2023-06-26T09:17:08;7.75;;;7.03;;
483;SDS011;228;48.922;12.198;2023-06-26T09:19:44;11.50;;;7.60;;
483;SDS011;228;48.922;12.198;2023-06-26T09:22:34;7.97;;;6.72;;
483;SDS011;228;48.922;12.198;2023-06-26T09:25:07;8.13;;;7.00;;
483;SDS011;228;48.922;12.198;2023-06-26T09:27:38;7.90;;;7.03;;
483;SDS011;228;48.922;12.198;2023-06-26T09:30:17;7.35;;;6.55;;
483;SDS011;228;48.922;12.198;2023-06-26T09:33:12;8.45;;;7.57;;
483;SDS011;228;48.922;12.198;2023-06-26T09:36:41;8.02;;;6.90;;
483;SDS011;228;48.922;12.198;2023-06-26T09:39:15;7.65;;;6.78;;
483;SDS011;228;48.922;12.198;2023-06-26T09:41:45;8.15;;;6.93;;
483;SDS011;228;48.922;12.198;2023-06-26T09:44:13;7.53;;;6.72;;
483;SDS011;228;48.922;12.198;2023-06-26T09:46:40;8.05;;;7.25;;
483;SDS011;228;48.922;12.198;2023-06-26T09:49:11;9.30;;;6.55;;
483;SDS011;228;48.922;12.198;2023-06-26T09:51:38;9.95;;;6.93;;
483;SDS011;228;48.922;12.198;2023-06-26T09:54:08;7.70;;;7.00;;
483;SDS011;228;48.922;12.198;2023-06-26T09:56:36;7.25;;;6.25;;
483;SDS011;228;48.922;12.198;2023-06-26T09:59:18;7.47;;;6.68;;
483;SDS011;228;48.922;12.198;2023-06-26T10:02:02;8.32;;;6.38;;
483;SDS011;228;48.922;12.198;2023-06-26T10:04:33;7.20;;;6.50;;
483;SDS011;228;48.922;12.198;2023-06-26T10:07:02;7.55;;;6.85;;
483;SDS011;228;48.922;12.198;2023-06-26T10:09:36;8.30;;;7.00;;
483;SDS011;228;48.922;12.198;2023-06-26T10:12:14;7.60;;;6.85;;
483;SDS011;228;48.922;12.198;2023-06-26T10:14:45;7.22;;;6.53;;
483;SDS011;228;48.922;12.198;2023-06-26T10:17:19;8.15;;;6.50;;
483;SDS011;228;48.922;12.198;2023-06-26T10:19:47;7.07;;;6.40;;
483;SDS011;228;48.922;12.198;2023-06-26T10:22:16;6.80;;;6.05;;
483;SDS011;228;48.922;12.198;2023-06-26T10:24:47;7.40;;;6.70;;
483;SDS011;228;48.922;12.198;2023-06-26T10:27:17;7.43;;;6.25;;
483;SDS011;228;48.922;12.198;2023-06-26T10:29:53;7.15;;;6.55;;
483;SDS011;228;48.922;12.198;2023-06-26T10:32:23;8.18;;;6.22;;
483;SDS011;228;48.922;12.198;2023-06-26T10:34:52;7.18;;;6.47;;
483;SDS011;228;48.922;12.198;2023-06-26T10:37:28;6.95;;;6.30;;
483;SDS011;228;48.922;12.198;2023-06-26T10:40:12;6.88;;;6.28;;
483;SDS011;228;48.922;12.198;2023-06-26T10:42:39;7.57;;;6.28;;
483;SDS011;228;48.922;12.198;2023-06-26T10:45:09;9.10;;;7.68;;
483;SDS011;228;48.922;12.198;2023-06-26T10:47:41;8.02;;;7.07;;
483;SDS011;228;48.922;12.198;2023-06-26T10:50:24;7.30;;;6.60;;
483;SDS011;228;48.922;12.198;2023-06-26T10:53:26;6.90;;;6.20;;
483;SDS011;228;48.922;12.198;2023-06-26T10:56:04;7.85;;;6.60;;
483;SDS011;228;48.922;12.198;2023-06-26T11:14:19;7.97;;;6.22;;
483;SDS011;228;48.922;12.198;2023-06-26T11:16:46;10.93;;;7.63;;
483;SDS011;228;48.922;12.198;2023-06-26T11:19:13;10.13;;;7.97;;
483;SDS011;228;48.922;12.198;2023-06-26T11:21:40;7.00;;;6.15;;
483;SDS011;228;48.922;12.198;2023-06-26T11:37:24;6.20;;;5.60;;
483;SDS011;228;48.922;12.198;2023-06-26T11:39:51;9.25;;;5.93;;
483;SDS011;228;48.922;12.198;2023-06-26T11:42:18;8.63;;;5.70;;
483;SDS011;228;48.922;12.198;2023-06-26T11:44:46;6.68;;;5.65;;
483;SDS011;228;48.922;12.198;2023-06-26T11:47:13;6.22;;;5.63;;
483;SDS011;228;48.922;12.198;2023-06-26T11:49:47;6.05;;;5.45;;
483;SDS011;228;48.922;12.198;2023-06-26T11:52:14;6.65;;;6.05;;
483;SDS011;228;48.922;12.198;2023-06-26T11:54:42;7.00;;;6.20;;
483;SDS011;228;48.922;12.198;2023-06-26T11:57:08;6.47;;;5.88;;
483;SDS011;228;48.922;12.198;2023-06-26T11:59:40;6.05;;;5.45;;
483;SDS011;228;48.922;12.198;2023-06-26T12:02:06;6.68;;;6.07;;
483;SDS011;228;48.922;12.198;2023-06-26T12:04:36;7.38;;;6.68;;
483;SDS011;228;48.922;12.198;2023-06-26T12:07:05;9.27;;;7.13;;
483;SDS011;228;48.922;12.198;2023-06-26T12:09:36;7.05;;;6.45;;
483;SDS011;228;48.922;12.198;2023-06-26T12:12:12;8.18;;;7.40;;
483;SDS011;228;48.922;12.198;2023-06-26T12:14:42;7.97;;;7.22;;
483;SDS011;228;48.922;12.198;2023-06-26T12:17:09;9.30;;;6.88;;
483;SDS011;228;48.922;12.198;2023-06-26T12:19:37;7.97;;;7.28;;
483;SDS011;228;48.922;12.198;2023-06-26T12:22:13;7.53;;;6.82;;
483;SDS011;228;48.922;12.198;2023-06-26T12:24:39;8.13;;;7.43;;
483;SDS011;228;48.922;12.198;2023-06-26T12:27:09;7.72;;;6.93;;
483;SDS011;228;48.922;12.198;2023-06-26T12:29:38;9.65;;;7.75;;
483;SDS011;228;48.922;12.198;2023-06-26T12:32:08;8.10;;;7.30;;
483;SDS011;228;48.922;12.198;2023-06-26T12:34:36;8.02;;;7.32;;
483;SDS011;228;48.922;12.198;2023-06-26T12:37:06;7.80;;;7.18;;
483;SDS011;228;48.922;12.198;2023-06-26T12:42:14;8.63;;;7.57;;
483;SDS011;228;48.922;12.198;2023-06-26T12:44:43;8.27;;;7.50;;
483;SDS011;228;48.922;12.198;2023-06-26T12:47:09;7.75;;;6.97;;
483;SDS011;228;48.922;12.198;2023-06-26T12:49:39;7.38;;;6.75;;
483;SDS011;228;48.922;12.198;2023-06-26T12:52:11;7.93;;;7.05;;
483;SDS011;228;48.922;12.198;2023-06-26T12:54:41;8.43;;;7.13;;
483;SDS011;228;48.922;12.198;2023-06-26T12:57:08;8.10;;;7.18;;
483;SDS011;228;48.922;12.198;2023-06-26T12:59:38;9.55;;;7.28;;
483;SDS011;228;48.922;12.198;2023-06-26T13:02:04;7.93;;;7.22;;
483;SDS011;228;48.922;12.198;2023-06-26T13:04:31;7.93;;;7.22;;
483;SDS011;228;48.922;12.198;2023-06-26T13:06:58;7.45;;;6.75;;
483;SDS011;228;48.922;12.198;2023-06-26T13:09:24;7.13;;;6.53;;
483;SDS011;228;48.922;12.198;2023-06-26T13:11:51;7.35;;;6.75;;
483;SDS011;228;48.922;12.198;2023-06-26T13:14:18;8.02;;;6.85;;
483;SDS011;228;48.922;12.198;2023-06-26T13:16:44;7.30;;;6.70;;
483;SDS011;228;48.922;12.198;2023-06-26T13:25:51;8.52;;;7.72;;
483;SDS011;228;48.922;12.198;2023-06-26T13:28:31;8.23;;;7.43;;
483;SDS011;228;48.922;12.198;2023-06-26T13:31:59;8.50;;;6.82;;
483;SDS011;228;48.922;12.198;2023-06-26T13:34:55;7.20;;;6.50;;
483;SDS011;228;48.922;12.198;2023-06-26T13:38:16;7.25;;;6.65;;
483;SDS011;228;48.922;12.198;2023-06-26T13:40:46;7.22;;;6.60;;
483;SDS011;228;48.922;12.198;2023-06-26T13:43:16;6.93;;;6.35;;
483;SDS011;228;48.922;12.198;2023-06-26T13:45:49;7.22;;;6.60;;
483;SDS011;228;48.922;12.198;2023-06-26T13:48:17;8.02;;;6.57;;
483;SDS011;228;48.922;12.198;2023-06-26T13:50:46;7.07;;;6.47;;
483;SDS011;228;48.922;12.198;2023-06-26T13:53:13;6.93;;;6.32;;
483;SDS011;228;48.922;12.198;2023-06-26T13:55:48;6.72;;;6.13;;
483;SDS011;228;48.922;12.198;2023-06-26T13:58:17;7.00;;;6.30;;
483;SDS011;228;48.922;12.198;2023-06-26T14:00:48;7.03;;;6.32;;
483;SDS011;228;48.922;12.198;2023-06-26T14:03:18;6.63;;;5.97;;
483;SDS011;228;48.922;12.198;2023-06-26T14:05:45;6.78;;;6.13;;
483;SDS011;228;48.922;12.198;2023-06-26T14:08:12;6.15;;;5.55;;
483;SDS011;228;48.922;12.198;2023-06-26T14:10:38;6.97;;;5.97;;
483;SDS011;228;48.922;12.198;2023-06-26T14:13:05;6.93;;;6.15;;
483;SDS011;228;48.922;12.198;2023-06-26T14:15:32;8.27;;;5.93;;
483;SDS011;228;48.922;12.198;2023-06-26T14:17:58;6.28;;;5.63;;
483;SDS011;228;48.922;12.198;2023-06-26T14:20:24;6.90;;;5.97;;
483;SDS011;228;48.922;12.198;2023-06-26T14:22:50;6.38;;;5.78;;
483;SDS011;228;48.922;12.198;2023-06-26T14:25:16;5.90;;;5.40;;
483;SDS011;228;48.922;12.198;2023-06-26T14:27:42;6.13;;;5.60;;
483;SDS011;228;48.922;12.198;2023-06-26T14:30:09;6.32;;;5.40;;
483;SDS011;228;48.922;12.198;2023-06-26T14:32:35;6.35;;;5.75;;
483;SDS011;228;48.922;12.198;2023-06-26T14:35:02;6.22;;;5.72;;
483;SDS011;228;48.922;12.198;2023-06-26T14:37:30;6.28;;;5.78;;
483;SDS011;228;48.922;12.198;2023-06-26T14:39:56;6.07;;;5.47;;
483;SDS011;228;48.922;12.198;2023-06-26T14:42:24;6.55;;;5.95;;
483;SDS011;228;48.922;12.198;2023-06-26T14:44:51;6.25;;;5.75;;
483;SDS011;228;48.922;12.198;2023-06-26T14:47:19;6.18;;;5.68;;
483;SDS011;228;48.922;12.198;2023-06-26T14:49:46;6.43;;;5.93;;
483;SDS011;228;48.922;12.198;2023-06-26T14:52:12;6.57;;;5.97;;
483;SDS011;228;48.922;12.198;2023-06-26T14:54:38;7.10;;;5.93;;
483;SDS011;228;48.922;12.198;2023-06-26T14:57:05;6.72;;;6.07;;
483;SDS011;228;48.922;12.198;2023-06-26T14:59:32;6.18;;;5.63;;
483;SDS011;228;48.922;12.198;2023-06-26T15:01:58;6.82;;;6.03;;
483;SDS011;228;48.922;12.198;2023-06-26T15:04:24;6.75;;;6.13;;
483;SDS011;228;48.922;12.198;2023-06-26T15:06:50;6.60;;;6.00;;
483;SDS011;228;48.922;12.198;2023-06-26T15:09:17;6.22;;;5.70;;
483;SDS011;228;48.922;12.198;2023-06-26T15:11:43;6.60;;;6.00;;
483;SDS011;228;48.922;12.198;2023-06-26T15:14:09;6.60;;;5.88;;
483;SDS011;228;48.922;12.198;2023-06-26T15:16:35;6.93;;;6.22;;
483;SDS011;228;48.922;12.198;2023-06-26T15:19:01;7.65;;;5.72;;
483;SDS011;228;48.922;12.198;2023-06-26T15:21:27;6.85;;;6.20;;
483;SDS011;228;48.922;12.198;2023-06-26T15:23:53;6.47;;;5.88;;
483;SDS011;228;48.922;12.198;2023-06-26T15:26:19;6.93;;;6.32;;
483;SDS011;228;48.922;12.198;2023-06-26T15:28:45;6.75;;;6.10;;
483;SDS011;228;48.922;12.198;2023-06-26T15:31:11;7.47;;;5.72;;
483;SDS011;228;48.922;12.198;2023-06-26T15:33:37;6.57;;;5.97;;
483;SDS011;228;48.922;12.198;2023-06-26T15:36:03;8.27;;;6.25;;
483;SDS011;228;48.922;12.198;2023-06-26T15:38:30;6.95;;;5.85;;
483;SDS011;228;48.922;12.198;2023-06-26T15:40:56;6.20;;;5.60;;
483;SDS011;228;48.922;12.198;2023-06-26T15:43:22;5.90;;;5.28;;
483;SDS011;228;48.922;12.198;2023-06-26T15:45:48;6.40;;;5.80;;
483;SDS011;228;48.922;12.198;2023-06-26T15:48:14;6.35;;;5.85;;
483;SDS011;228;48.922;12.198;2023-06-26T15:50:40;6.10;;;5.50;;
483;SDS011;228;48.922;12.198;2023-06-26T15:53:06;6.45;;;5.85;;
483;SDS011;228;48.922;12.198;2023-06-26T15:55:32;6.15;;;5.65;;
483;SDS011;228;48.922;12.198;2023-06-26T15:57:58;6.20;;;5.60;;
483;SDS011;228;48.922;12.198;2023-06-26T16:00:25;7.22;;;5.88;;
483;SDS011;228;48.922;12.198;2023-06-26T16:02:51;6.13;;;5.53;;
483;SDS011;228;48.922;12.198;2023-06-26T16:05:17;6.45;;;5.75;;
483;SDS011;228;48.922;12.198;2023-06-26T16:07:43;7.30;;;6.05;;
483;SDS011;228;48.922;12.198;2023-06-26T16:10:09;7.75;;;5.55;;
483;SDS011;228;48.922;12.198;2023-06-26T16:12:35;7.15;;;5.85;;
483;SDS011;228;48.922;12.198;2023-06-26T16:15:01;6.60;;;6.00;;
483;SDS011;228;48.922;12.198;2023-06-26T16:17:29;6.88;;;6.28;;
483;SDS011;228;48.922;12.198;2023-06-26T16:19:55;8.07;;;6.47;;
483;SDS011;228;48.922;12.198;2023-06-26T16:22:21;6.40;;;5.80;;
483;SDS011;228;48.922;12.198;2023-06-26T16:24:47;6.32;;;5.80;;
483;SDS011;228;48.922;12.198;2023-06-26T16:27:13;7.20;;;6.50;;
483;SDS011;228;48.922;12.198;2023-06-26T16:29:39;6.60;;;6.00;;
483;SDS011;228;48.922;12.198;2023-06-26T16:32:08;7.35;;;6.30;;
483;SDS011;228;48.922;12.198;2023-06-26T16:34:34;6.95;;;6.30;;
483;SDS011;228;48.922;12.198;2023-06-26T16:37:01;7.20;;;6.15;;
483;SDS011;228;48.922;12.198;2023-06-26T16:39:32;7.93;;;6.50;;
483;SDS011;228;48.922;12.198;2023-06-26T16:41:59;7.40;;;6.68;;
483;SDS011;228;48.922;12.198;2023-06-26T16:44:25;7.38;;;6.68;;
483;SDS011;228;48.922;12.198;2023-06-26T16:46:58;6.90;;;6.30;;
483;SDS011;228;48.922;12.198;2023-06-26T16:49:25;7.30;;;6.60;;
483;SDS011;228;48.922;12.198;2023-06-26T16:51:52;8.85;;;6.45;;
483;SDS011;228;48.922;12.198;2023-06-26T16:54:22;7.35;;;6.55;;
483;SDS011;228;48.922;12.198;2023-06-26T16:56:51;8.20;;;6.97;;
483;SDS011;228;48.922;12.198;2023-06-26T16:59:17;8.48;;;6.43;;
483;SDS011;228;48.922;12.198;2023-06-26T17:01:45;6.93;;;5.70;;
483;SDS011;228;48.922;12.198;2023-06-26T17:04:12;8.38;;;6.32;;
483;SDS011;228;48.922;12.198;2023-06-26T17:06:38;7.18;;;6.43;;
483;SDS011;228;48.922;12.198;2023-06-26T17:09:04;7.53;;;6.50;;
483;SDS011;228;48.922;12.198;2023-06-26T17:11:30;7.55;;;6.82;;
483;SDS011;228;48.922;12.198;2023-06-26T17:13:56;9.32;;;7.30;;
483;SDS011;228;48.922;12.198;2023-06-26T17:16:22;7.90;;;7.10;;
483;SDS011;228;48.922;12.198;2023-06-26T17:18:48;8.05;;;7.22;;
483;SDS011;228;48.922;12.198;2023-06-26T17:21:16;7.95;;;6.72;;
483;SDS011;228;48.922;12.198;2023-06-26T17:23:42;8.00;;;7.20;;
483;SDS011;228;48.922;12.198;2023-06-26T17:26:08;7.32;;;6.50;;
483;SDS011;228;48.922;12.198;2023-06-26T17:28:34;7.63;;;6.93;;
483;SDS011;228;48.922;12.198;2023-06-26T17:31:01;7.65;;;6.90;;
483;SDS011;228;48.922;12.198;2023-06-26T17:33:26;8.07;;;7.28;;
483;SDS011;228;48.922;12.198;2023-06-26T17:35:52;8.90;;;7.47;;
483;SDS011;228;48.922;12.198;2023-06-26T17:38:18;8.52;;;7.32;;
483;SDS011;228;48.922;12.198;2023-06-26T17:40:44;8.20;;;7.40;;
483;SDS011;228;48.922;12.198;2023-06-26T17:43:10;8.18;;;7.32;;
483;SDS011;228;48.922;12.198;2023-06-26T17:45:36;8.48;;;7.57;;
483;SDS011;228;48.922;12.198;2023-06-26T17:48:03;7.72;;;6.90;;
483;SDS011;228;48.922;12.198;2023-06-26T17:50:30;7.90;;;7.10;;
483;SDS011;228;48.922;12.198;2023-06-26T17:52:56;10.15;;;7.07;;
483;SDS011;228;48.922;12.198;2023-06-26T17:55:25;8.32;;;7.40;;
483;SDS011;228;48.922;12.198;2023-06-26T17:57:52;9.15;;;7.40;;
483;SDS011;228;48.922;12.198;2023-06-26T18:00:18;7.90;;;7.10;;
483;SDS011;228;48.922;12.198;2023-06-26T18:02:44;8.48;;;7.57;;
483;SDS011;228;48.922;12.198;2023-06-26T18:05:10;9.10;;;7.57;;
483;SDS011;228;48.922;12.198;2023-06-26T18:07:36;8.25;;;7.45;;
483;SDS011;228;48.922;12.198;2023-06-26T18:10:04;8.20;;;7.40;;
483;SDS011;228;48.922;12.198;2023-06-26T18:12:31;9.98;;;7.90;;
483;SDS011;228;48.922;12.198;2023-06-26T18:14:57;9.30;;;7.38;;
483;SDS011;228;48.922;12.198;2023-06-26T18:17:29;8.60;;;7.20;;
483;SDS011;228;48.922;12.198;2023-06-26T18:19:56;10.18;;;7.53;;
483;SDS011;228;48.922;12.198;2023-06-26T18:22:22;9.90;;;8.00;;
483;SDS011;228;48.922;12.198;2023-06-26T18:24:48;8.10;;;7.30;;
483;SDS011;228;48.922;12.198;2023-06-26T18:27:14;8.40;;;7.55;;
483;SDS011;228;48.922;12.198;2023-06-26T18:29:40;8.65;;;7.35;;
483;SDS011;228;48.922;12.198;2023-06-26T18:32:07;8.50;;;7.65;;
483;SDS011;228;48.922;12.198;2023-06-26T18:34:34;10.35;;;7.68;;
483;SDS011;228;48.922;12.198;2023-06-26T18:37:00;8.52;;;7.65;;
483;SDS011;228;48.922;12.198;2023-06-26T18:39:26;11.93;;;7.80;;
483;SDS011;228;48.922;12.198;2023-06-26T18:41:55;9.05;;;7.10;;
483;SDS011;228;48.922;12.198;2023-06-26T18:44:21;10.88;;;7.32;;
483;SDS011;228;48.922;12.198;2023-06-26T18:46:47;7.00;;;6.30;;
483;SDS011;228;48.922;12.198;2023-06-26T18:49:13;11.18;;;6.60;;
483;SDS011;228;48.922;12.198;2023-06-26T18:51:39;7.07;;;6.30;;
483;SDS011;228;48.922;12.198;2023-06-26T18:54:05;7.00;;;5.97;;
483;SDS011;228;48.922;12.198;2023-06-26T18:56:32;7.45;;;6.18;;
483;SDS011;228;48.922;12.198;2023-06-26T18:58:59;7.70;;;6.10;;
483;SDS011;228;48.922;12.198;2023-06-26T19:01:25;11.23;;;6.43;;
483;SDS011;228;48.922;12.198;2023-06-26T19:03:52;9.13;;;6.07;;
483;SDS011;228;48.922;12.198;2023-06-26T19:06:18;7.20;;;6.35;;
483;SDS011;228;48.922;12.198;2023-06-26T19:08:45;6.50;;;5.90;;
483;SDS011;228;48.922;12.198;2023-06-26T19:11:13;11.15;;;6.05;;
483;SDS011;228;48.922;12.198;2023-06-26T19:13:42;8.93;;;5.97;;
483;SDS011;228;48.922;12.198;2023-06-26T19:16:11;6.78;;;5.88;;
483;SDS011;228;48.922;12.198;2023-06-26T19:18:38;6.45;;;5.75;;
483;SDS011;228;48.922;12.198;2023-06-26T19:21:04;8.32;;;5.30;;
483;SDS011;228;48.922;12.198;2023-06-26T19:23:30;6.07;;;5.20;;
483;SDS011;228;48.922;12.198;2023-06-26T19:25:56;7.75;;;5.60;;
483;SDS011;228;48.922;12.198;2023-06-26T19:28:24;6.13;;;5.30;;
483;SDS011;228;48.922;12.198;2023-06-26T19:30:51;7.38;;;5.20;;
483;SDS011;228;48.922;12.198;2023-06-26T19:33:17;6.35;;;5.68;;
483;SDS011;228;48.922;12.198;2023-06-26T19:35:44;7.40;;;5.30;;
483;SDS011;228;48.922;12.198;2023-06-26T19:38:10;8.90;;;5.00;;
483;SDS011;228;48.922;12.198;2023-06-26T19:40:36;6.03;;;5.43;;
483;SDS011;228;48.922;12.198;2023-06-26T19:43:03;6.40;;;5.13;;
483;SDS011;228;48.922;12.198;2023-06-26T19:45:30;6.38;;;4.57;;
483;SDS011;228;48.922;12.198;2023-06-26T19:47:56;5.70;;;4.65;;
483;SDS011;228;48.922;12.198;2023-06-26T19:50:23;5.22;;;4.57;;
483;SDS011;228;48.922;12.198;2023-06-26T19:52:49;5.97;;;4.75;;
483;SDS011;228;48.922;12.198;2023-06-26T19:55:16;5.35;;;4.75;;
483;SDS011;228;48.922;12.198;2023-06-26T19:57:43;5.10;;;4.60;;
483;SDS011;228;48.922;12.198;2023-06-26T20:00:11;5.97;;;4.40;;
483;SDS011;228;48.922;12.198;2023-06-26T20:02:38;8.30;;;4.35;;
483;SDS011;228;48.922;12.198;2023-06-26T20:05:04;4.93;;;4.43;;
483;SDS011;228;48.922;12.198;2023-06-26T20:07:30;5.55;;;4.40;;
483;SDS011;228;48.922;12.198;2023-06-26T20:09:57;8.70;;;4.78;;
483;SDS011;228;48.922;12.198;2023-06-26T20:12:23;5.18;;;4.60;;
483;SDS011;228;48.922;12.198;2023-06-26T20:14:49;5.07;;;4.57;;
483;SDS011;228;48.922;12.198;2023-06-26T20:17:15;6.82;;;5.28;;
483;SDS011;228;48.922;12.198;2023-06-26T20:19:41;6.28;;;4.78;;